Time;durP1;ratioP1;P1;durP2;ratioP2;P2;SDS_P1;SDS_P2;PMS_P1;PMS_P2;Temp;Humidity;BMP_temperature;BMP_pressure;BME280_temperature;BME280_humidity;BME280_pressure;Samples;Min_cycle;Max_cycle;Signal;HPM_P1;HPM_P2
2023/10/27 00:01:08;;;;;;;24.50;17.05;;;;;;;10.00;100.00;99197.53;4898292;29;20043;-74
2023/10/27 00:03:35;;;;;;;22.90;17.10;;;;;;;10.00;100.00;99199.31;4898565;29;20111;-73
2023/10/27 00:06:00;;;;;;;22.88;17.15;;;;;;;10.00;100.00;99199.31;4894683;29;20501;-73
2023/10/27 00:08:26;;;;;;;23.50;17.75;;;;;;;10.03;100.00;99196.53;4869038;29;20088;-73
2023/10/27 00:10:52;;;;;;;24.73;16.05;;;;;;;10.03;100.00;99202.66;4880093;29;20079;-73
2023/10/27 00:13:18;;;;;;;23.88;16.50;;;;;;;10.02;100.00;99194.81;4879050;29;20052;-74
2023/10/27 00:15:43;;;;;;;25.17;17.83;;;;;;;10.06;100.00;99191.97;4897854;29;20028;-74
2023/10/27 00:18:09;;;;;;;23.65;17.95;;;;;;;10.06;100.00;99199.91;4887896;29;20043;-74
2023/10/27 00:20:34;;;;;;;23.77;17.30;;;;;;;10.07;100.00;99198.13;4878823;29;20056;-74
2023/10/27 00:23:00;;;;;;;25.77;17.92;;;;;;;10.08;100.00;99197.16;4897901;29;20048;-75
2023/10/27 00:25:25;;;;;;;25.92;17.20;;;;;;;10.08;100.00;99191.88;4894624;29;20158;-74
2023/10/27 00:27:51;;;;;;;24.00;17.65;;;;;;;10.08;100.00;99187.44;4847580;29;20401;-74
2023/10/27 00:30:17;;;;;;;24.75;18.40;;;;;;;10.08;100.00;99186.59;4883738;29;20032;-74
2023/10/27 00:32:43;;;;;;;26.90;18.95;;;;;;;10.06;100.00;99180.50;4884284;29;20033;-74
2023/10/27 00:35:09;;;;;;;28.05;19.17;;;;;;;10.06;100.00;99181.41;4891419;29;20039;-75
2023/10/27 00:37:35;;;;;;;29.85;19.38;;;;;;;10.07;100.00;99182.25;4865028;29;20041;-75
2023/10/27 00:40:02;;;;;;;31.45;19.63;;;;;;;10.06;100.00;99170.81;4880851;29;20045;-75
2023/10/27 00:42:27;;;;;;;26.65;18.25;;;;;;;10.08;100.00;99170.72;4851774;29;20033;-75
2023/10/27 00:44:53;;;;;;;21.40;16.27;;;;;;;10.09;100.00;99175.09;4887393;29;20052;-74
2023/10/27 00:47:18;;;;;;;25.25;17.73;;;;;;;10.10;100.00;99171.53;4897549;29;20157;-74
2023/10/27 00:49:44;;;;;;;29.92;19.00;;;;;;;10.08;100.00;99168.94;4897512;29;20051;-74
2023/10/27 00:52:14;;;;;;;27.80;18.70;;;;;;;10.09;100.00;99169.81;4888897;29;20045;-74
2023/10/27 00:54:40;;;;;;;28.30;19.27;;;;;;;10.07;100.00;99161.94;4893385;29;20048;-75
2023/10/27 00:57:07;;;;;;;26.60;17.67;;;;;;;10.09;100.00;99168.03;4897358;29;20064;-75
2023/10/27 00:59:34;;;;;;;29.00;18.38;;;;;;;10.10;100.00;99166.22;4897624;29;20096;-74
2023/10/27 01:02:00;;;;;;;25.63;17.40;;;;;;;10.10;100.00;99168.88;4897503;29;20182;-74
2023/10/27 01:04:25;;;;;;;29.77;19.63;;;;;;;10.11;100.00;99165.28;4897247;29;20160;-75
2023/10/27 01:06:52;;;;;;;27.90;18.08;;;;;;;10.10;100.00;99169.72;4879242;29;20037;-75
2023/10/27 01:09:18;;;;;;;26.10;16.63;;;;;;;10.09;100.00;99169.81;4878793;29;20459;-75
2023/10/27 01:11:44;;;;;;;25.92;17.42;;;;;;;10.09;100.00;99162.72;4876800;29;20136;-75
2023/10/27 01:14:10;;;;;;;22.83;16.73;;;;;;;10.09;100.00;99157.44;4869479;29;20115;-75
2023/10/27 01:16:35;;;;;;;26.67;16.95;;;;;;;10.10;100.00;99166.22;4864470;29;20085;-75
2023/10/27 01:19:01;;;;;;;26.60;17.23;;;;;;;10.10;100.00;99155.66;4886655;29;20048;-75
2023/10/27 01:21:26;;;;;;;26.45;17.45;;;;;;;10.10;100.00;99156.50;4885494;29;20599;-74
2023/10/27 01:23:52;;;;;;;26.13;17.02;;;;;;;10.11;100.00;99155.59;4861768;29;20039;-74
2023/10/27 01:26:17;;;;;;;28.27;16.40;;;;;;;10.09;100.00;99154.78;4861427;29;20529;-75
2023/10/27 01:28:43;;;;;;;22.30;15.95;;;;;;;10.10;100.00;99151.22;4844835;29;20073;-74
2023/10/27 01:31:08;;;;;;;23.98;16.20;;;;;;;10.11;100.00;99154.69;4882625;29;20033;-75
2023/10/27 01:33:34;;;;;;;21.40;15.27;;;;;;;10.10;100.00;99155.66;4897243;29;20127;-75
2023/10/27 01:35:59;;;;;;;22.25;13.15;;;;;;;10.10;100.00;99158.28;4896576;29;20048;-75
2023/10/27 01:38:25;;;;;;;26.73;15.93;;;;;;;10.10;100.00;99155.66;4885822;29;20124;-75
2023/10/27 01:40:50;;;;;;;25.17;15.35;;;;;;;10.08;100.00;99157.50;4881271;29;20116;-75
2023/10/27 01:43:16;;;;;;;19.55;14.05;;;;;;;10.07;100.00;99153.16;4871047;29;20521;-76
2023/10/27 01:45:41;;;;;;;23.52;14.13;;;;;;;10.08;100.00;99147.78;4892698;29;20041;-75
2023/10/27 01:48:07;;;;;;;22.45;14.48;;;;;;;10.07;100.00;99147.88;4896830;29;20396;-75
2023/10/27 01:50:32;;;;;;;24.15;13.48;;;;;;;10.04;100.00;99140.94;4879901;29;20111;-75
2023/10/27 01:52:58;;;;;;;23.60;13.38;;;;;;;10.06;100.00;99144.38;4883556;29;20048;-75
2023/10/27 01:55:24;;;;;;;18.15;11.38;;;;;;;10.06;100.00;99147.00;4864311;29;20048;-75
2023/10/27 01:57:49;;;;;;;19.05;13.20;;;;;;;10.06;100.00;99143.47;4880160;29;20048;-75
2023/10/27 02:00:15;;;;;;;25.05;12.68;;;;;;;10.05;100.00;99136.50;4864418;29;20078;-75
2023/10/27 02:02:41;;;;;;;24.23;12.35;;;;;;;10.02;100.00;99137.50;4864534;29;20044;-75
2023/10/27 02:05:08;;;;;;;21.98;12.45;;;;;;;10.04;100.00;99140.06;4853405;29;20080;-74
2023/10/27 02:07:34;;;;;;;26.15;12.35;;;;;;;10.03;100.00;99141.84;4889263;29;20060;-74
2023/10/27 02:10:00;;;;;;;21.73;11.70;;;;;;;10.03;100.00;99133.91;4894566;29;20100;-74
2023/10/27 02:12:26;;;;;;;20.95;12.43;;;;;;;10.03;100.00;99133.91;4845204;29;20389;-75
2023/10/27 02:14:52;;;;;;;21.60;12.00;;;;;;;10.01;100.00;99133.13;4876510;29;20047;-75
2023/10/27 02:17:17;;;;;;;26.90;12.73;;;;;;;10.02;100.00;99131.34;4869461;29;20087;-75
2023/10/27 02:19:43;;;;;;;22.23;12.13;;;;;;;10.00;100.00;99126.13;4893693;29;20436;-75
2023/10/27 02:22:09;;;;;;;19.73;11.02;;;;;;;10.01;100.00;99121.69;4877510;29;20500;-75
2023/10/27 02:24:37;;;;;;;18.80;11.07;;;;;;;10.00;100.00;99126.13;4888158;29;20062;-75
2023/10/27 02:27:03;;;;;;;18.40;11.60;;;;;;;10.02;100.00;99120.78;4883144;29;20484;-75
2023/10/27 02:29:28;;;;;;;22.42;11.98;;;;;;;10.03;100.00;99122.47;4864395;29;20346;-75
2023/10/27 02:31:54;;;;;;;20.73;11.25;;;;;;;10.03;100.00;99120.69;4874755;29;20039;-76
2023/10/27 02:34:20;;;;;;;22.25;11.73;;;;;;;10.01;100.00;99119.91;4870159;29;20040;-76
2023/10/27 02:36:46;;;;;;;20.50;11.00;;;;;;;10.01;100.00;99124.34;4899928;29;20044;-76
2023/10/27 02:39:11;;;;;;;22.77;12.25;;;;;;;10.00;100.00;99128.78;4870480;29;20048;-76
2023/10/27 02:41:37;;;;;;;20.25;11.27;;;;;;;9.99;100.00;99115.59;4899774;29;20477;-75
2023/10/27 02:44:03;;;;;;;25.13;11.90;;;;;;;10.00;100.00;99123.47;4871131;29;20053;-75
2023/10/27 02:46:29;;;;;;;25.98;12.02;;;;;;;9.98;100.00;99109.47;4863832;29;20029;-75
2023/10/27 02:48:54;;;;;;;19.63;11.15;;;;;;;9.96;100.00;99116.63;4849094;29;20048;-75
2023/10/27 02:51:21;;;;;;;23.00;11.52;;;;;;;9.97;100.00;99109.56;4874880;29;20090;-75
2023/10/27 02:53:47;;;;;;;23.83;10.20;;;;;;;9.97;100.00;99113.06;4853825;29;20453;-75
2023/10/27 02:56:13;;;;;;;15.85;10.65;;;;;;;9.98;100.00;99106.81;4894036;29;20040;-74
2023/10/27 02:58:38;;;;;;;21.15;11.02;;;;;;;9.98;100.00;99116.56;4870602;29;20032;-74
2023/10/27 03:01:10;;;;;;;15.82;9.63;;;;;;;9.97;100.00;99110.41;4887785;29;20136;-75
2023/10/27 03:03:36;;;;;;;21.70;10.02;;;;;;;9.99;100.00;99103.28;4864098;29;20037;-75
2023/10/27 03:06:03;;;;;;;18.35;9.27;;;;;;;9.99;100.00;99105.91;4884951;29;20057;-75
2023/10/27 03:08:28;;;;;;;16.67;10.35;;;;;;;9.98;100.00;99106.81;4864208;29;20311;-76
2023/10/27 03:10:53;;;;;;;18.98;10.07;;;;;;;9.95;100.00;99101.69;4870810;29;20036;-75
2023/10/27 03:13:19;;;;;;;19.25;9.35;;;;;;;9.97;100.00;99101.63;4888930;29;20549;-75
2023/10/27 03:15:46;;;;;;;20.67;10.52;;;;;;;9.96;100.00;99100.75;4859309;29;20369;-75
2023/10/27 03:18:11;;;;;;;21.08;11.07;;;;;;;9.96;100.00;99100.75;4889158;29;20611;-75
2023/10/27 03:20:37;;;;;;;15.88;9.23;;;;;;;9.94;100.00;99097.34;4898556;29;20032;-75
2023/10/27 03:23:03;;;;;;;16.27;8.95;;;;;;;9.96;100.00;99098.09;4882584;29;20080;-75
2023/10/27 03:25:28;;;;;;;19.90;9.80;;;;;;;9.96;100.00;99103.38;4896780;29;20150;-74
2023/10/27 03:27:54;;;;;;;17.80;9.40;;;;;;;9.96;100.00;99092.81;4888336;29;20075;-74
2023/10/27 03:30:19;;;;;;;20.48;10.20;;;;;;;9.97;100.00;99099.84;4868669;29;20082;-74
2023/10/27 03:32:45;;;;;;;18.95;10.85;;;;;;;9.98;100.00;99098.88;4874455;29;20089;-74
2023/10/27 03:35:10;;;;;;;19.35;9.25;;;;;;;9.97;100.00;99099.84;4884868;29;20414;-74
2023/10/27 03:37:36;;;;;;;22.15;10.10;;;;;;;9.95;100.00;99096.41;4856121;29;20063;-74
2023/10/27 03:40:04;;;;;;;18.35;8.93;;;;;;;9.95;100.00;99093.75;4899026;29;20037;-74
2023/10/27 03:42:29;;;;;;;18.20;9.75;;;;;;;9.97;100.00;99089.25;4880944;29;20497;-74
2023/10/27 03:44:54;;;;;;;15.43;9.23;;;;;;;9.97;100.00;99088.41;4877586;29;20039;-74
2023/10/27 03:47:20;;;;;;;16.52;8.45;;;;;;;9.97;100.00;99089.25;4884961;29;20041;-74
2023/10/27 03:49:46;;;;;;;16.35;9.18;;;;;;;9.99;100.00;99089.16;4878780;29;20396;-74
2023/10/27 03:52:12;;;;;;;17.60;9.02;;;;;;;10.00;100.00;99091.75;4863307;29;20088;-74
2023/10/27 03:54:37;;;;;;;18.15;9.85;;;;;;;10.01;100.00;99096.09;4879994;29;20040;-74
2023/10/27 03:57:03;;;;;;;16.05;9.27;;;;;;;9.98;100.00;99090.09;4863082;29;20037;-75
2023/10/27 03:59:28;;;;;;;21.73;9.80;;;;;;;9.98;100.00;99090.09;4835128;29;20045;-75
2023/10/27 04:01:53;;;;;;;17.90;9.82;;;;;;;9.96;100.00;99084.88;4887617;29;20147;-75
2023/10/27 04:04:20;;;;;;;15.13;8.88;;;;;;;9.93;100.00;99078.91;4868505;29;20465;-75
2023/10/27 04:06:45;;;;;;;15.88;8.68;;;;;;;9.96;100.00;99078.75;4887397;29;20033;-75
2023/10/27 04:09:11;;;;;;;19.33;9.32;;;;;;;9.95;100.00;99082.31;4879768;29;20446;-75
2023/10/27 04:11:37;;;;;;;18.95;9.18;;;;;;;9.95;100.00;99083.19;4876307;29;20590;-75
2023/10/27 04:14:04;;;;;;;18.95;9.23;;;;;;;9.94;100.00;99086.78;4889507;29;20060;-75
2023/10/27 04:16:30;;;;;;;13.95;7.65;;;;;;;9.91;100.00;99081.59;4882688;29;20053;-75
2023/10/27 04:18:56;;;;;;;13.60;7.90;;;;;;;9.91;100.00;99089.53;4878403;29;20033;-75
2023/10/27 04:21:21;;;;;;;18.85;9.60;;;;;;;9.90;100.00;99088.69;4892943;29;20058;-75
2023/10/27 04:23:47;;;;;;;16.85;8.93;;;;;;;9.90;100.00;99083.41;4865853;29;20061;-75
2023/10/27 04:26:13;;;;;;;17.08;9.02;;;;;;;9.93;100.00;99081.53;4873227;29;20093;-76
2023/10/27 04:28:39;;;;;;;19.10;8.90;;;;;;;9.93;100.00;99084.19;4893376;29;20071;-75
2023/10/27 04:31:05;;;;;;;16.73;8.52;;;;;;;9.91;100.00;99086.88;4881284;29;20052;-75
2023/10/27 04:33:31;;;;;;;11.50;7.28;;;;;;;9.90;100.00;99085.19;4890551;29;20052;-75
2023/10/27 04:35:56;;;;;;;21.58;9.60;;;;;;;9.90;100.00;99078.09;4897927;29;20045;-75
2023/10/27 04:38:22;;;;;;;13.13;6.63;;;;;;;9.86;100.00;99081.81;4898066;29;20132;-75
2023/10/27 04:40:51;;;;;;;15.10;8.27;;;;;;;9.91;100.00;99084.25;4871120;29;20052;-75
2023/10/27 04:43:17;;;;;;;15.98;8.88;;;;;;;9.91;100.00;99089.53;4889690;29;20079;-75
2023/10/27 04:45:42;;;;;;;13.63;7.55;;;;;;;9.92;100.00;99090.41;4866826;29;20228;-75
2023/10/27 04:48:08;;;;;;;13.30;8.38;;;;;;;9.90;100.00;99090.47;4897775;29;20037;-75
2023/10/27 04:50:35;;;;;;;16.98;7.97;;;;;;;9.90;100.00;99091.31;4897628;29;20508;-75
2023/10/27 04:53:00;;;;;;;17.60;8.25;;;;;;;9.90;100.00;99093.13;4879763;29;20132;-75
2023/10/27 04:55:26;;;;;;;14.48;7.85;;;;;;;9.88;100.00;99087.88;4836441;29;20123;-75
2023/10/27 04:57:52;;;;;;;14.10;6.95;;;;;;;9.90;100.00;99090.47;4892534;29;20041;-75
2023/10/27 05:00:17;;;;;;;12.75;7.97;;;;;;;9.89;100.00;99086.09;4897331;29;20040;-75
2023/10/27 05:02:43;;;;;;;13.07;7.72;;;;;;;9.90;100.00;99099.25;4871428;29;20505;-75
2023/10/27 05:05:09;;;;;;;15.75;8.48;;;;;;;9.88;100.00;99089.69;4873865;29;20056;-75
2023/10/27 05:07:36;;;;;;;13.50;8.20;;;;;;;9.88;100.00;99090.53;4876900;29;20052;-75
2023/10/27 05:10:01;;;;;;;17.83;8.52;;;;;;;9.89;100.00;99088.75;4896609;29;20036;-75
2023/10/27 05:12:26;;;;;;;15.43;8.13;;;;;;;9.88;100.00;99082.59;4884371;29;20453;-75
2023/10/27 05:14:52;;;;;;;18.42;8.57;;;;;;;9.88;100.00;99082.59;4874871;29;20598;-75
2023/10/27 05:17:18;;;;;;;15.98;7.65;;;;;;;9.87;100.00;99074.75;4878427;29;20078;-75
2023/10/27 05:19:43;;;;;;;15.32;7.10;;;;;;;9.87;100.00;99067.69;4878658;29;20085;-75
2023/10/27 05:22:08;;;;;;;15.90;8.20;;;;;;;9.85;100.00;99077.47;4894367;29;20036;-75
2023/10/27 05:24:34;;;;;;;16.52;7.75;;;;;;;9.83;100.00;99074.03;4872139;29;20123;-74
2023/10/27 05:27:00;;;;;;;16.67;6.90;;;;;;;9.85;100.00;99071.31;4892121;29;20100;-75
2023/10/27 05:29:26;;;;;;;12.27;7.20;;;;;;;9.83;100.00;99071.38;4870981;29;20043;-74
2023/10/27 05:31:52;;;;;;;10.82;7.28;;;;;;;9.85;100.00;99069.53;4878202;29;20496;-75
2023/10/27 05:34:17;;;;;;;11.75;6.55;;;;;;;9.85;100.00;99066.91;4870042;29;20045;-75
2023/10/27 05:36:43;;;;;;;16.50;7.38;;;;;;;9.86;100.00;99068.59;4880222;29;20044;-75
2023/10/27 05:39:16;;;;;;;12.40;7.45;;;;;;;9.85;100.00;99069.53;4881067;29;20485;-75
2023/10/27 05:41:48;;;;;;;9.52;6.13;;;;;;;9.83;100.00;99063.47;4887427;29;20059;-75
2023/10/27 05:44:14;;;;;;;14.88;7.43;;;;;;;9.82;100.00;99059.13;4896903;29;20156;-75
2023/10/27 05:46:39;;;;;;;13.50;7.38;;;;;;;9.80;100.00;99062.75;4871671;29;20418;-75
2023/10/27 05:49:05;;;;;;;17.92;7.38;;;;;;;9.81;100.00;99061.81;4862124;29;20094;-75
2023/10/27 05:51:33;;;;;;;14.18;7.45;;;;;;;9.80;100.00;99060.13;4896690;29;20029;-75
2023/10/27 05:53:58;;;;;;;11.70;6.70;;;;;;;9.80;100.00;99065.41;4896242;29;20044;-74
2023/10/27 05:56:25;;;;;;;14.00;7.18;;;;;;;9.79;100.00;99055.75;4875236;29;20080;-74
2023/10/27 05:58:51;;;;;;;11.93;7.57;;;;;;;9.78;100.00;99059.31;4878175;29;20470;-74
2023/10/27 06:01:17;;;;;;;13.45;6.68;;;;;;;9.79;100.00;99058.38;4893374;29;20052;-74
2023/10/27 06:03:42;;;;;;;12.50;6.88;;;;;;;9.76;100.00;99059.38;4896886;29;20076;-74
2023/10/27 06:06:08;;;;;;;13.43;8.23;;;;;;;9.77;100.00;99065.56;4879747;29;20053;-74
2023/10/27 06:08:39;;;;;;;12.05;7.13;;;;;;;9.75;100.00;99062.97;4878152;29;20045;-74
2023/10/27 06:11:04;;;;;;;13.73;7.15;;;;;;;9.77;100.00;99062.91;4885655;29;20136;-74
2023/10/27 06:13:30;;;;;;;16.40;7.20;;;;;;;9.80;100.00;99068.03;4883284;29;20216;-74
2023/10/27 06:15:55;;;;;;;13.70;7.32;;;;;;;9.81;100.00;99069.75;4896442;29;20070;-74
2023/10/27 06:18:20;;;;;;;15.02;7.63;;;;;;;9.82;100.00;99072.34;4867502;29;20044;-75
2023/10/27 06:20:46;;;;;;;12.70;7.05;;;;;;;9.85;100.00;99076.63;4886412;29;20029;-72
2023/10/27 06:23:11;;;;;;;16.65;6.40;;;;;;;9.83;100.00;99078.47;4896432;29;20123;-72
2023/10/27 06:25:37;;;;;;;11.13;7.18;;;;;;;9.84;100.00;99091.63;4875995;29;20061;-72
2023/10/27 06:28:03;;;;;;;14.13;7.35;;;;;;;9.82;100.00;99077.63;4878037;29;20056;-72
2023/10/27 06:30:29;;;;;;;11.27;7.43;;;;;;;9.81;100.00;99075.88;4879071;29;20044;-72
2023/10/27 06:32:54;;;;;;;11.38;6.78;;;;;;;9.81;100.00;99077.69;4865525;29;20502;-74
2023/10/27 06:35:22;;;;;;;13.60;7.10;;;;;;;9.81;100.00;99077.69;4877659;29;20042;-74
2023/10/27 06:37:48;;;;;;;14.15;7.90;;;;;;;9.81;100.00;99075.03;4883216;29;20099;-74
2023/10/27 06:40:13;;;;;;;14.13;7.75;;;;;;;9.81;100.00;99078.53;4885190;29;20048;-74
2023/10/27 06:42:38;;;;;;;10.60;6.72;;;;;;;9.82;100.00;99077.63;4894631;29;20040;-74
2023/10/27 06:45:04;;;;;;;8.98;6.03;;;;;;;9.82;100.00;99079.41;4896371;29;20353;-74
2023/10/27 06:47:30;;;;;;;12.98;6.80;;;;;;;9.82;100.00;99080.25;4894600;29;20063;-73
2023/10/27 06:49:55;;;;;;;10.05;6.78;;;;;;;9.83;100.00;99075.81;4877610;29;20073;-74
2023/10/27 06:52:21;;;;;;;8.50;6.45;;;;;;;9.83;100.00;99075.81;4860974;29;20056;-74
2023/10/27 06:54:47;;;;;;;8.93;6.60;;;;;;;9.86;100.00;99086.25;4895874;29;20040;-74
2023/10/27 06:57:12;;;;;;;10.32;6.28;;;;;;;9.86;100.00;99091.53;4896140;29;20538;-74
2023/10/27 06:59:37;;;;;;;11.27;6.50;;;;;;;9.88;100.00;99087.88;4853427;29;20056;-74
2023/10/27 07:02:03;;;;;;;9.13;6.40;;;;;;;9.90;100.00;99090.47;4887416;29;20123;-74
2023/10/27 07:04:29;;;;;;;9.80;6.68;;;;;;;9.91;100.00;99094.81;4859281;29;20415;-74
2023/10/27 07:06:54;;;;;;;9.02;6.10;;;;;;;9.92;100.00;99101.00;4885313;29;20400;-74
2023/10/27 07:09:20;;;;;;;9.38;6.65;;;;;;;9.93;100.00;99094.75;4887135;29;20100;-74
2023/10/27 07:11:45;;;;;;;11.73;6.97;;;;;;;9.93;100.00;99089.47;4881162;29;20113;-74
2023/10/27 07:14:14;;;;;;;11.30;6.78;;;;;;;9.96;100.00;99099.91;4891695;29;20044;-74
2023/10/27 07:16:40;;;;;;;9.48;6.50;;;;;;;9.98;100.00;99112.13;4886137;29;20119;-73
2023/10/27 07:19:06;;;;;;;9.98;7.32;;;;;;;9.97;100.00;99105.13;4882083;29;20051;-73
2023/10/27 07:21:34;;;;;;;10.65;7.15;;;;;;;10.01;100.00;99111.13;4891536;29;20044;-73
2023/10/27 07:23:59;;;;;;;11.40;7.20;;;;;;;10.02;100.00;99113.69;4850027;29;20136;-74
2023/10/27 07:26:25;;;;;;;8.20;6.22;;;;;;;10.05;100.00;99110.03;4880856;29;20490;-73
2023/10/27 07:28:50;;;;;;;9.90;6.57;;;;;;;10.07;100.00;99113.47;4863919;29;20041;-74
2023/10/27 07:31:16;;;;;;;11.05;6.40;;;;;;;10.09;100.00;99119.56;4880468;29;20037;-73
2023/10/27 07:33:41;;;;;;;11.38;7.07;;;;;;;10.11;100.00;99120.31;4863771;29;20048;-74
2023/10/27 07:36:10;;;;;;;11.93;6.70;;;;;;;10.11;100.00;99109.75;4863349;29;20041;-74
2023/10/27 07:38:36;;;;;;;9.68;7.10;;;;;;;10.12;100.00;99117.63;4864120;29;20109;-74
2023/10/27 07:41:03;;;;;;;11.45;6.75;;;;;;;10.14;100.00;99117.56;4892084;29;20461;-74
2023/10/27 07:43:29;;;;;;;9.10;6.18;;;;;;;10.15;100.00;99124.53;4880618;29;20517;-74
2023/10/27 07:45:55;;;;;;;11.18;6.10;;;;;;;10.18;100.00;99127.03;4864676;29;20037;-74
2023/10/27 07:48:21;;;;;;;8.63;6.90;;;;;;;10.18;100.00;99128.84;4880553;29;20101;-74
2023/10/27 07:50:47;;;;;;;9.75;6.50;;;;;;;10.19;100.00;99131.41;4884566;29;20032;-74
2023/10/27 07:53:13;;;;;;;10.32;6.20;;;;;;;10.18;100.00;99126.19;4863263;29;20100;-74
2023/10/27 07:55:39;;;;;;;9.25;6.00;;;;;;;10.20;100.00;99129.63;4879797;29;20033;-73
2023/10/27 07:58:07;;;;;;;9.57;6.38;;;;;;;10.20;100.00;99135.75;4880170;29;20505;-73
2023/10/27 08:00:32;;;;;;;10.57;6.70;;;;;;;10.20;100.00;99134.91;4879811;29;20041;-72
2023/10/27 08:02:58;;;;;;;7.50;5.53;;;;;;;10.20;100.00;99132.28;4879803;29;20045;-72
2023/10/27 08:05:24;;;;;;;9.05;6.50;;;;;;;10.21;100.00;99137.50;4881919;29;20088;-72
2023/10/27 08:07:49;;;;;;;9.48;6.40;;;;;;;10.18;100.00;99129.69;4879489;29;20048;-73
2023/10/27 08:10:16;;;;;;;7.00;5.63;;;;;;;10.22;100.00;99131.25;4890873;29;20517;-72
2023/10/27 08:12:42;;;;;;;6.70;5.07;;;;;;;10.23;100.00;99132.13;4885005;29;20113;-73
2023/10/27 08:15:09;;;;;;;6.93;5.32;;;;;;;10.22;100.00;99125.97;4881443;29;20053;-73
2023/10/27 08:17:36;;;;;;;8.50;6.18;;;;;;;10.26;100.00;99121.38;4888385;29;20047;-74
2023/10/27 08:20:05;;;;;;;9.45;6.30;;;;;;;10.26;100.00;99130.19;4863687;29;20075;-74
2023/10/27 08:22:32;;;;;;;13.20;6.43;;;;;;;10.28;100.00;99125.69;4850526;29;20369;-74
2023/10/27 08:24:58;;;;;;;9.90;5.78;;;;;;;10.28;100.00;99133.63;4888338;29;20064;-74
2023/10/27 08:27:24;;;;;;;9.20;6.30;;;;;;;10.28;100.00;99133.63;4884538;29;20544;-73
2023/10/27 08:29:54;;;;;;;8.98;5.95;;;;;;;10.26;100.00;99142.53;4881023;29;20096;-73
2023/10/27 08:32:21;;;;;;;12.50;5.70;;;;;;;10.26;100.00;99147.84;4879357;29;20041;-73
2023/10/27 08:34:47;;;;;;;10.82;6.60;;;;;;;10.26;100.00;99153.13;4872347;29;20420;-74
2023/10/27 08:37:13;;;;;;;9.27;5.82;;;;;;;10.27;100.00;99160.16;4892423;29;20123;-72
2023/10/27 08:39:38;;;;;;;9.02;5.95;;;;;;;10.29;100.00;99171.56;4895877;29;20036;-73
2023/10/27 08:42:07;;;;;;;8.00;5.18;;;;;;;10.27;100.00;99166.28;4880956;29;20143;-73
2023/10/27 08:44:36;;;;;;;10.48;5.38;;;;;;;10.30;100.00;99165.31;4884985;29;21259;-73
2023/10/27 08:47:04;;;;;;;10.93;6.07;;;;;;;10.30;100.00;99168.81;4883099;29;20033;-73
2023/10/27 08:49:31;;;;;;;9.50;5.78;;;;;;;10.30;100.00;99168.81;4870876;29;20075;-73
2023/10/27 08:51:58;;;;;;;8.77;5.65;;;;;;;10.30;100.00;99166.16;4881921;29;20048;-73
2023/10/27 08:54:24;;;;;;;5.95;5.15;;;;;;;10.32;100.00;99169.59;4896910;29;20168;-73
2023/10/27 08:56:49;;;;;;;6.85;5.28;;;;;;;10.32;100.00;99172.25;4884267;29;20120;-73
2023/10/27 08:59:15;;;;;;;7.93;5.60;;;;;;;10.32;100.00;99169.59;4862498;29;20047;-73
2023/10/27 09:01:42;;;;;;;7.82;5.50;;;;;;;10.32;100.00;99172.25;4880602;29;20132;-73
2023/10/27 09:04:16;;;;;;;9.80;5.55;;;;;;;10.31;100.00;99169.66;4881855;29;20029;-73
2023/10/27 09:06:42;;;;;;;9.05;5.10;;;;;;;10.32;100.00;99180.19;4880675;29;20033;-73
2023/10/27 09:09:11;;;;;;;7.35;4.93;;;;;;;10.34;100.00;99182.78;4880046;29;20033;-74
2023/10/27 09:11:47;;;;;;;7.22;5.10;;;;;;;10.31;100.00;99167.91;4877538;29;20045;-74
2023/10/27 09:14:19;;;;;;;5.57;4.95;;;;;;;10.31;100.00;99180.25;4882221;29;20071;-74
2023/10/27 09:16:44;;;;;;;8.50;5.40;;;;;;;10.29;100.00;99183.00;4881193;29;20049;-73
2023/10/27 09:19:24;;;;;;;9.02;5.50;;;;;;;10.30;100.00;99189.13;4878510;29;20176;-74
2023/10/27 09:21:52;;;;;;;8.38;5.90;;;;;;;10.30;100.00;99183.84;4891934;29;20072;-74
2023/10/27 09:24:35;;;;;;;8.38;6.18;;;;;;;10.31;100.00;99186.44;4897359;29;20048;-73
2023/10/27 09:27:02;;;;;;;6.35;5.30;;;;;;;10.30;100.00;99178.56;4897200;29;20048;-74
2023/10/27 09:29:30;;;;;;;7.45;5.75;;;;;;;10.34;100.00;99177.50;4873329;29;20048;-73
2023/10/27 09:31:55;;;;;;;8.95;4.90;;;;;;;10.37;100.00;99179.13;4889078;29;20033;-75
2023/10/27 09:34:26;;;;;;;6.95;4.80;;;;;;;10.38;100.00;99180.81;4871502;29;20123;-74
2023/10/27 09:36:57;;;;;;;7.20;5.13;;;;;;;10.41;100.00;99183.31;4882786;29;20057;-74
2023/10/27 09:39:23;;;;;;;6.95;5.07;;;;;;;10.43;100.00;99187.59;4856544;29;20080;-74
2023/10/27 09:42:02;;;;;;;7.13;5.13;;;;;;;10.45;100.00;99196.34;4877839;29;20480;-75
2023/10/27 09:45:11;;;;;;;7.10;4.65;;;;;;;10.50;100.00;99189.03;4879690;29;20072;-74
2023/10/27 09:47:46;;;;;;;5.93;4.60;;;;;;;10.52;100.00;99191.63;4868175;29;20488;-74
2023/10/27 09:50:14;;;;;;;7.15;4.85;;;;;;;10.53;100.00;99183.63;4890832;29;20045;-74
2023/10/27 09:52:43;;;;;;;6.10;5.13;;;;;;;10.55;100.00;99187.03;4884850;29;20119;-74
2023/10/27 09:55:12;;;;;;;7.03;4.93;;;;;;;10.61;100.00;99182.38;4887545;29;20117;-74
2023/10/27 09:57:39;;;;;;;6.97;4.85;;;;;;;10.68;100.00;99170.53;4878214;29;20045;-74
2023/10/27 10:00:08;;;;;;;6.95;4.90;;;;;;;10.68;100.00;99158.19;4878007;29;20124;-74
2023/10/27 10:02:37;;;;;;;7.10;5.47;;;;;;;10.70;100.00;99160.75;4878291;29;20040;-74
2023/10/27 10:05:03;;;;;;;6.82;5.70;;;;;;;10.70;100.00;99179.28;4877632;29;20059;-73
2023/10/27 10:07:35;;;;;;;6.63;5.15;;;;;;;10.73;100.00;99179.13;4875005;29;20049;-74
2023/10/27 10:10:21;;;;;;;8.60;5.68;;;;;;;10.81;100.00;99168.19;4890151;29;20100;-73
2023/10/27 10:13:02;;;;;;;5.95;5.35;;;;;;;10.89;100.00;99169.50;4883127;29;20052;-73
2023/10/27 10:15:31;;;;;;;6.68;5.60;;;;;;;10.94;100.00;99174.56;4877982;29;20044;-74
2023/10/27 10:18:07;;;;;;;7.25;6.05;;;;;;;10.99;100.00;99167.25;4885722;29;20495;-73
2023/10/27 10:20:41;;;;;;;8.15;5.22;;;;;;;11.04;100.00;99173.16;4882920;29;20036;-73
2023/10/27 10:23:08;;;;;;;8.38;5.13;;;;;;;11.07;100.00;99172.16;4879884;29;20037;-73
2023/10/27 10:25:34;;;;;;;6.95;5.00;;;;;;;11.08;100.00;99190.63;4863311;29;20040;-73
2023/10/27 10:28:08;;;;;;;6.60;4.80;;;;;;;11.12;100.00;99188.66;4878154;29;20040;-72
2023/10/27 10:30:44;;;;;;;7.40;5.15;;;;;;;11.10;100.00;99194.06;4878178;29;20040;-72
2023/10/27 10:33:24;;;;;;;7.63;4.57;;;;;;;11.10;100.00;99202.00;4877866;29;20044;-72
2023/10/27 10:35:51;;;;;;;6.43;4.83;;;;;;;11.12;100.00;99201.91;4877500;29;20085;-72
2023/10/27 10:38:20;;;;;;;4.30;3.88;;;;;;;11.12;100.00;99204.56;4877806;29;20646;-71
2023/10/27 10:40:59;;;;;;;4.97;4.45;;;;;;;11.09;100.00;99212.69;4881393;29;20077;-73
2023/10/27 10:43:32;;;;;;;6.50;5.32;;;;;;;11.07;100.00;99211.88;4889661;29;20045;-73
2023/10/27 10:46:03;;;;;;;6.38;4.68;;;;;;;11.05;100.00;99208.44;4881630;29;20041;-73
2023/10/27 10:48:33;;;;;;;6.93;5.10;;;;;;;11.00;100.00;99210.47;4881440;29;20052;-73
2023/10/27 10:51:04;;;;;;;5.97;3.72;;;;;;;10.95;100.00;99201.00;4878911;29;20029;-73
2023/10/27 10:53:30;;;;;;;6.45;4.00;;;;;;;10.95;100.00;99202.75;4882496;29;20128;-73
2023/10/27 10:55:58;;;;;;;6.93;4.13;;;;;;;10.97;100.00;99204.38;4880900;29;20116;-74
2023/10/27 10:58:25;;;;;;;5.22;4.40;;;;;;;11.00;100.00;99203.38;4881281;29;20481;-74
2023/10/27 11:00:51;;;;;;;5.00;3.90;;;;;;;10.98;100.00;99192.88;4880741;29;20037;-75
2023/10/27 11:03:18;;;;;;;6.57;4.45;;;;;;;10.99;100.00;99199.03;4863847;29;20088;-75
2023/10/27 11:05:44;;;;;;;5.65;4.10;;;;;;;10.98;100.00;99199.97;4877302;29;20052;-75
2023/10/27 11:08:10;;;;;;;7.03;4.32;;;;;;;10.98;100.00;99194.69;4886571;29;20392;-75
2023/10/27 11:10:36;;;;;;;8.20;4.75;;;;;;;11.00;100.00;99206.03;4884119;29;20036;-72
2023/10/27 11:13:05;;;;;;;5.25;4.53;;;;;;;10.98;100.00;99198.19;4884793;29;20503;-72
2023/10/27 11:15:45;;;;;;;6.65;4.93;;;;;;;10.97;100.00;99200.88;4871484;29;20821;-73
2023/10/27 11:18:13;;;;;;;6.40;4.68;;;;;;;10.94;100.00;99195.75;4884516;29;20048;-72
2023/10/27 11:20:40;;;;;;;4.82;3.83;;;;;;;10.89;100.00;99187.19;4880524;29;20041;-73